Data for 09/11/2015

Time Sea-Level Adjusted Pressure Absolute Pressure Temperature Relative Humidity Dew Point   
(mb) (inHg) (mb) (inHg) (C) (F) (%) (C) (F)
00:05 1025 30.27 854 25.22 15.9 60.6 39 2 35.5
00:10 1025 30.27 854 25.22 15.9 60.5 39 2.1 35.8
00:15 1025 30.27 854 25.22 15.7 60.2 39 2 35.6
00:20 1025 30.27 854 25.22 15.6 60.1 40 2.1 35.7
00:25 1025 30.27 854 25.22 15.5 59.9 40 2 35.6
00:30 1025 30.27 854 25.22 15.4 59.8 40 2.1 35.8
00:35 1025 30.27 854 25.22 15.3 59.5 41 2.1 35.9
00:40 1025 30.27 854 25.22 15.2 59.4 41 2.2 36
00:45 1025 30.27 854 25.22 15.1 59.1 41 2.1 35.8
00:50 1025 30.27 854 25.22 15 58.9 42 2.2 35.9
00:55 1025 30.27 854 25.22 14.8 58.7 42 2.2 35.9
01:00 1025 30.27 854 25.22 14.7 58.5 42 2.1 35.8
01:05 1025 30.27 854 25.22 14.8 58.7 42 2.2 35.9
01:10 1025 30.27 854 25.22 14.8 58.6 42 2.2 35.9
01:15 1025 30.27 854 25.22 14.8 58.7 42 2.1 35.8
01:20 1025 30.27 855 25.25 14.7 58.4 43 2.4 36.4
01:25 1025 30.27 855 25.25 14.2 57.5 44 2.2 35.9
01:30 1025 30.27 855 25.25 14.2 57.6 44 2.2 36
01:35 1025 30.27 855 25.25 14.2 57.5 44 2.2 36
01:40 1025 30.27 855 25.25 14.1 57.3 45 2.2 36
01:45 1025 30.27 855 25.25 13.9 57 45 2.1 35.7
01:50 1025 30.27 855 25.25 14 57.2 44 2.1 35.8
01:55 1025 30.27 855 25.25 14 57.1 45 2.2 36
02:00 1025 30.27 855 25.25 13.8 56.8 45 2.3 36.1
02:05 1025 30.27 855 25.25 13.6 56.4 46 2.2 36
02:10 1025 30.27 855 25.25 13.4 56.2 46 2.2 36
02:15 1025 30.27 855 25.25 13.3 55.9 47 2.2 35.9
02:20 1025 30.27 855 25.25 13.1 55.6 48 2.3 36.2
02:25 1026 30.3 855 25.25 12.9 55.3 48 2.3 36.1
02:30 1026 30.3 855 25.25 12.8 55 49 2.3 36.1
02:35 1026 30.3 855 25.25 12.8 55 48 2.2 36
02:40 1026 30.3 855 25.25 12.8 55 49 2.3 36.1
02:45 1026 30.3 855 25.25 12.8 55 49 2.3 36.1
02:50 1026 30.3 855 25.25 12.4 54.2 51 2.5 36.5
02:55 1026 30.3 855 25.25 11.8 53.2 51 2.1 35.9
03:00 1026 30.3 855 25.25 11.5 52.6 51 1.8 35.2
03:05 1026 30.3 855 25.25 11.4 52.5 51 1.6 34.8
03:10 1026 30.3 855 25.25 11.1 52 51 1.4 34.6
03:15 1026 30.3 855 25.25 10.9 51.6 51 1.3 34.3
03:20 1026 30.3 855 25.25 10.7 51.2 51 1 33.8
03:25 1026 30.3 855 25.25 10.6 51 51 1 33.8
03:30 1026 30.3 855 25.25 10.5 50.9 51 0.9 33.6
03:35 1026 30.3 855 25.25 10.3 50.5 52 1 33.7
03:40 1026 30.3 855 25.25 10.2 50.4 52 0.9 33.7
03:45 1026 30.3 855 25.25 10.3 50.5 52 0.9 33.6
03:50 1026 30.3 855 25.25 10.2 50.3 53 1 33.8
03:55 1026 30.3 855 25.25 10.1 50.1 53 0.9 33.7
04:00 1026 30.3 855 25.25 10 49.9 53 0.8 33.5
04:05 1026 30.3 855 25.25 9.9 49.9 53 0.8 33.5
04:10 1026 30.3 855 25.25 10 50 53 0.9 33.5
04:15 1026 30.3 855 25.25 10.2 50.3 52 0.9 33.6
04:20 1026 30.3 855 25.25 10.3 50.6 52 1 33.8
04:25 1026 30.3 855 25.25 10.6 51 51 1 33.7
04:30 1026 30.3 855 25.25 10.7 51.2 50 0.7 33.2
04:35 1026 30.3 855 25.25 10.6 51.1 51 0.9 33.7
04:40 1026 30.3 855 25.25 10.6 51 51 0.9 33.7
04:45 1026 30.3 855 25.25 10.6 51 53 1.3 34.4
04:50 1026 30.3 855 25.25 10.7 51.3 52 1.4 34.6
04:55 1026 30.3 855 25.25 10.8 51.4 52 1.4 34.6
05:00 1026 30.3 855 25.25 10.6 51 53 1.5 34.7
05:05 1026 30.3 855 25.25 10.1 50.3 55 1.7 35
05:10 1026 30.3 855 25.25 9.8 49.6 57 1.8 35.2
05:15 1026 30.3 855 25.25 9.5 49.1 59 1.9 35.4
05:20 1026 30.3 855 25.25 9.3 48.7 60 1.9 35.3
05:25 1026 30.3 855 25.25 9.3 48.7 60 1.8 35.3
05:30 1026 30.3 855 25.25 9.4 49 58 1.7 35.1
05:35 1026 30.3 855 25.25 9.6 49.3 58 1.8 35.2
05:40 1026 30.3 855 25.25 9.6 49.3 58 1.9 35.4
05:45 1026 30.3 855 25.25 9.4 49 58 1.7 35
05:50 1026 30.3 855 25.25 9.5 49 58 1.5 34.8
05:55 1026 30.3 855 25.25 9.1 48.5 59 1.6 34.8
06:00 1026 30.3 855 25.25 9 48.2 59 1.4 34.5
06:05 1026 30.3 855 25.25 9.2 48.5 57 1.1 33.9
06:10 1026 30.3 855 25.25 9.4 49 57 1.3 34.3
06:15 1026 30.3 855 25.25 9.4 48.9 56 1.2 34.2
06:20 1026 30.3 855 25.25 9.4 48.9 56 1.1 34.1
06:25 1026 30.3 855 25.25 9.3 48.8 56 1.1 34.1
06:30 1026 30.3 856 25.28 9.4 48.9 56 1 33.8
06:35 1026 30.3 856 25.28 9.8 49.6 54 0.8 33.5
06:40 1026 30.3 856 25.28 10.2 50.3 53 1 33.9
06:45 1026 30.3 856 25.28 10.2 50.3 53 1.1 34
06:50 1026 30.3 856 25.28 10.4 50.8 52 1 33.8
06:55 1026 30.3 856 25.28 10.6 51.1 52 1.2 34.1
07:00 1026 30.3 856 25.28 10.8 51.5 52 1.3 34.4
07:05 1026 30.3 856 25.28 11 51.8 52 1.5 34.6
07:10 1026 30.3 856 25.28 11.3 52.4 51 1.5 34.8
07:15 1027 30.33 856 25.28 11.6 52.8 51 1.8 35.2
07:20 1027 30.33 856 25.28 11.7 53 49 1.5 34.7
07:25 1027 30.33 856 25.28 11.6 52.8 50 1.6 34.9
07:30 1027 30.33 856 25.28 11.9 53.5 48 1.3 34.3
07:35 1027 30.33 856 25.28 12.3 54.1 47 1.5 34.7
07:40 1027 30.33 856 25.28 12.9 55.1 47 1.9 35.4
07:45 1027 30.33 856 25.28 13.3 55.9 47 2.2 36
07:50 1027 30.33 856 25.28 13.4 56.1 46 2.2 35.9
07:55 1027 30.33 856 25.28 13.5 56.4 46 2.1 35.7
08:00 1027 30.33 856 25.28 13.9 56.9 44 1.9 35.3
08:05 1027 30.33 856 25.28 14.4 57.9 43 2.2 36
08:10 1027 30.33 856 25.28 14.5 58.1 43 2.2 35.9
08:15 1027 30.33 856 25.28 15 58.9 41 1.9 35.4
08:20 1027 30.33 856 25.28 15.4 59.8 38 1.3 34.4
08:25 1027 30.33 856 25.28 16 60.8 38 1.8 35.2
08:30 1027 30.33 856 25.28 16.2 61.1 38 1.9 35.5
08:35 1027 30.33 856 25.28 16.5 61.7 36 1.6 34.9
08:40 1027 30.33 856 25.28 16.9 62.3 35 1.6 34.9
08:45 1027 30.33 856 25.28 17.1 62.7 36 1.9 35.4
08:50 1027 30.33 856 25.28 17.1 62.7 38 2.7 36.9
08:55 1027 30.33 856 25.28 16.8 62.2 37 2.1 35.8
09:00 1027 30.33 856 25.28 17.3 63.1 36 2.4 36.2
09:05 1026 30.3 856 25.28 16.9 62.4 38 2.6 36.7
09:10 1026 30.3 856 25.28 17.2 62.9 37 2.3 36.2
09:15 1027 30.33 856 25.28 17.5 63.6 36 2.3 36.1
09:20 1027 30.33 856 25.28 18.1 64.5 34 2.2 36
09:25 1027 30.33 856 25.28 18.1 64.5 33 1.8 35.3
09:30 1027 30.33 856 25.28 17.7 63.8 36 2.4 36.4
09:35 1026 30.3 856 25.28 17.3 63.2 36 2.2 36
09:40 1026 30.3 856 25.28 18.1 64.6 35 2.6 36.6
09:45 1026 30.3 856 25.28 18 64.4 33 1.7 35
09:50 1026 30.3 856 25.28 19.3 66.7 31 1.9 35.5
09:55 1026 30.3 856 25.28 19.6 67.3 31 2.3 36.2
10:00 1026 30.3 856 25.28 20.1 68.2 30 2.1 35.7
10:05 1026 30.3 856 25.28 19.9 67.8 32 2.8 37.1
10:10 1026 30.3 856 25.28 19.9 67.8 32 3.1 37.6
10:15 1026 30.3 856 25.28 19.2 66.5 33 2.8 37
10:20 1026 30.3 856 25.28 18.4 65 33 2 35.7
10:25 1026 30.3 856 25.28 18.3 64.9 35 2.5 36.6
10:30 1026 30.3 855 25.25 19 66.2 33 2.3 36.2
10:35 1026 30.3 855 25.25 19.4 66.9 32 2.3 36.1
10:40 1026 30.3 855 25.25 20.1 68.1 30 2.1 35.8
10:45 1026 30.3 855 25.25 20.6 69 29 2.3 36.1
10:50 1026 30.3 855 25.25 20.6 69 30 2.8 37
10:55 1026 30.3 855 25.25 20.8 69.4 31 3.1 37.6
11:00 1026 30.3 855 25.25 21 69.8 30 2.8 37.1
11:05 1026 30.3 855 25.25 21.2 70.2 30 3 37.3
11:10 1026 30.3 855 25.25 20.9 69.7 29 2.3 36.1
11:15 1026 30.3 855 25.25 21.7 71.1 28 2.7 36.8
11:20 1026 30.3 855 25.25 22 71.6 28 3 37.4
11:25 1026 30.3 855 25.25 21.9 71.4 27 2.4 36.2
11:30 1026 30.3 855 25.25 21.7 71.1 29 2.9 37.2
11:35 1026 30.3 855 25.25 20.5 68.9 30 2.5 36.4
11:40 1026 30.3 855 25.25 21.6 70.9 27 1.8 35.2
11:45 1026 30.3 855 25.25 22.2 71.9 27 2.6 36.6
11:50 1026 30.3 855 25.25 22.3 72.1 28 3.1 37.6
11:55 1026 30.3 855 25.25 22.1 71.8 28 2.8 37.1
12:00 1026 30.3 855 25.25 22.2 71.9 26 1.8 35.2
12:05 1026 30.3 855 25.25 23.1 73.6 25 2.1 35.8
12:10 1025 30.27 855 25.25 23.7 74.6 24 2.2 36
12:15 1025 30.27 855 25.25 23.9 75 25 2.7 36.9
12:20 1025 30.27 855 25.25 24.3 75.7 24 2.4 36.4
12:25 1025 30.27 854 25.22 23.8 74.9 24 2.2 35.9
12:30 1025 30.27 854 25.22 23.2 73.7 24 1.9 35.4
12:35 1025 30.27 854 25.22 22.5 72.4 25 1.9 35.5
12:40 1025 30.27 854 25.22 23.3 74 24 1.8 35.3
12:45 1025 30.27 854 25.22 23.2 73.8 23 1.4 34.5
12:50 1025 30.27 854 25.22 24.3 75.7 23 2.2 36
12:55 1025 30.27 854 25.22 24.6 76.3 23 2.3 36.1
13:00 1025 30.27 854 25.22 23.8 74.8 22 1 33.8
13:05 1025 30.27 854 25.22 24.6 76.2 22 1.7 35.1
13:10 1025 30.27 854 25.22 25 76.9 22 2.1 35.8
13:15 1025 30.27 854 25.22 25 77 22 2 35.6
13:20 1025 30.27 854 25.22 25.1 77.1 22 1.9 35.4
13:25 1025 30.27 854 25.22 25.2 77.4 22 2.3 36.2
13:30 1025 30.27 854 25.22 25.7 78.2 20 1 33.8
13:35 1025 30.27 854 25.22 25.6 78 21 2 35.7
13:40 1025 30.27 854 25.22 24.8 76.7 20 0.8 33.5
13:45 1025 30.27 854 25.22 24.9 76.8 21 1.4 34.5
13:50 1025 30.27 854 25.22 25 77 21 1.2 34.2
13:55 1024 30.24 854 25.22 25.3 77.5 19 -0.1 31.9
14:00 1024 30.24 854 25.22 25.6 78 20 1.3 34.3
14:05 1024 30.24 854 25.22 24.5 76.1 22 1.8 35.3
14:10 1024 30.24 854 25.22 24.7 76.4 21 1.2 34.1
14:15 1024 30.24 853 25.19 24.9 76.9 20 0.8 33.5
14:20 1024 30.24 853 25.19 25.6 78.1 19 0.6 33.1
14:25 1024 30.24 853 25.19 25.8 78.4 20 1.3 34.3
14:30 1024 30.24 853 25.19 24.8 76.6 21 1.1 34
14:35 1024 30.24 853 25.19 25.4 77.7 19 0.4 32.6
14:40 1024 30.24 853 25.19 25.8 78.4 19 0.7 33.3
14:45 1024 30.24 853 25.19 24.7 76.5 20 0.7 33.2
14:50 1024 30.24 853 25.19 25.1 77.1 18 -0.3 31.5
14:55 1024 30.24 853 25.19 25.9 78.7 18 0.1 32.2
15:00 1024 30.24 853 25.19 26.1 79 18 -0 32
15:05 1024 30.24 853 25.19 26.1 79 17 -0.5 31
15:10 1024 30.24 853 25.19 26.1 78.9 17 -0.4 31.3
15:15 1024 30.24 853 25.19 26.6 79.9 15 -1.7 28.9
15:20 1024 30.24 853 25.19 26.4 79.4 17 -0.3 31.5
15:25 1024 30.24 853 25.19 26.3 79.3 17 -0.7 30.8
15:30 1024 30.24 853 25.19 26.3 79.3 15 -1.9 28.6
15:35 1024 30.24 853 25.19 26.2 79.1 17 -0.2 31.6
15:40 1024 30.24 853 25.19 26.3 79.3 18 0 32
15:45 1024 30.24 853 25.19 25.5 77.8 18 -0.3 31.4
15:50 1024 30.24 853 25.19 25.8 78.5 17 -0.8 30.6
15:55 1024 30.24 853 25.19 25.9 78.5 18 0.2 32.3
16:00 1024 30.24 853 25.19 25.1 77.1 19 0.3 32.5
16:05 1023 30.21 853 25.19 25.7 78.2 17 -1.1 29.9
16:10 1023 30.21 853 25.19 25.9 78.7 18 -0.2 31.6
16:15 1023 30.21 853 25.19 26.3 79.4 17 -0.1 31.8
16:20 1023 30.21 853 25.19 26.4 79.5 17 0 32
16:25 1023 30.21 853 25.19 26.1 78.9 18 -0.1 31.9
16:30 1023 30.21 853 25.19 26 78.9 19 0.6 33.1
16:35 1023 30.21 853 25.19 26.1 79 18 -0.1 31.8
16:40 1023 30.21 853 25.19 26.1 79.1 18 0 32.1
16:45 1023 30.21 852 25.16 26 78.8 18 -0.1 31.8
16:50 1023 30.21 852 25.16 25.8 78.5 18 0.1 32.2
16:55 1023 30.21 852 25.16 26.1 79 18 -0 31.9
17:00 1023 30.21 852 25.16 26.1 78.9 18 0.2 32.3
17:05 1023 30.21 852 25.16 25.7 78.3 18 0.2 32.4
17:10 1023 30.21 852 25.16 25.8 78.4 18 -0.2 31.6
17:15 1023 30.21 852 25.16 25.4 77.8 18 -0 32
17:20 1023 30.21 852 25.16 25.2 77.3 20 0.7 33.2
17:25 1023 30.21 852 25.16 24.9 76.9 19 -0 32
17:30 1023 30.21 852 25.16 24.7 76.5 19 0.1 32.3
17:35 1023 30.21 852 25.16 24.6 76.3 20 0.7 33.3
17:40 1023 30.21 852 25.16 24.5 76 20 0.3 32.5
17:45 1023 30.21 852 25.16 24.4 75.9 20 0.2 32.4
17:50 1023 30.21 852 25.16 24.4 75.9 20 0.4 32.7
17:55 1023 30.21 852 25.16 24.3 75.7 21 1 33.8
18:00 1023 30.21 852 25.16 24 75.3 21 0.7 33.3
18:05 1023 30.21 852 25.16 23.9 75.1 21 0.8 33.5
18:10 1023 30.21 852 25.16 23.8 74.9 22 1 33.8
18:15 1023 30.21 852 25.16 23.6 74.5 22 0.8 33.4
18:20 1023 30.21 852 25.16 23.4 74.2 23 1.3 34.4
18:25 1023 30.21 852 25.16 23.2 73.7 25 2.1 35.7
18:30 1023 30.21 852 25.16 22.9 73.3 26 2.4 36.4
18:35 1023 30.21 852 25.16 22.6 72.6 26 2.1 35.7
18:40 1023 30.21 852 25.16 22.5 72.5 26 2.4 36.3
18:45 1023 30.21 852 25.16 22.2 72 28 3 37.4
18:50 1023 30.21 852 25.16 21.7 71.1 32 4.6 40.2
18:55 1023 30.21 852 25.16 20.6 69.2 33 4.2 39.5
19:00 1023 30.21 852 25.16 19.9 67.9 37 5 40.9
19:05 1023 30.21 852 25.16 19.5 67.2 35 3.9 39
19:10 1023 30.21 852 25.16 19.2 66.5 38 4.5 40.1
19:15 1023 30.21 852 25.16 18.7 65.7 36 3.7 38.6
19:20 1023 30.21 852 25.16 18.4 65.1 37 3.6 38.6
19:25 1023 30.21 852 25.16 18.3 64.9 38 3.7 38.7
19:30 1023 30.21 852 25.16 18.1 64.5 37 3.2 37.8
19:35 1023 30.21 853 25.19 17.6 63.7 39 3.7 38.6
19:40 1023 30.21 853 25.19 17.1 62.8 42 4.3 39.8
19:45 1023 30.21 853 25.19 16.8 62.2 40 3.4 38.1
19:50 1023 30.21 853 25.19 16.9 62.3 38 2.5 36.5
19:55 1023 30.21 853 25.19 17.4 63.2 35 1.8 35.2
20:00 1023 30.21 853 25.19 17.5 63.6 35 2 35.6
20:05 1023 30.21 853 25.19 17.3 63.1 35 1.9 35.4
20:10 1024 30.24 853 25.19 17.1 62.8 35 1.4 34.6
20:15 1024 30.24 853 25.19 17.2 63 34 1.3 34.4
20:20 1024 30.24 853 25.19 17.3 63.1 35 1.6 34.9
20:25 1024 30.24 853 25.19 16.9 62.4 36 1.8 35.3
20:30 1024 30.24 853 25.19 16.6 61.9 36 1.7 35.1
20:35 1024 30.24 853 25.19 16.5 61.6 38 2.2 36
20:40 1024 30.24 853 25.19 16.4 61.5 36 1.4 34.6
20:45 1024 30.24 853 25.19 16.5 61.7 35 1 33.9
20:50 1024 30.24 853 25.19 16.9 62.4 34 1.1 34
20:55 1024 30.24 853 25.19 16.9 62.4 35 1.4 34.6
21:00 1024 30.24 853 25.19 16.8 62.3 34 1.1 34
21:05 1024 30.24 853 25.19 16.6 61.8 36 1.6 34.8
21:10 1024 30.24 853 25.19 16.1 61 37 1.7 35
21:15 1024 30.24 853 25.19 15.9 60.7 37 1.4 34.5
21:20 1024 30.24 853 25.19 15.9 60.7 37 1.4 34.5
21:25 1024 30.24 853 25.19 16.1 61 36 1.2 34.1
21:30 1024 30.24 853 25.19 16.1 61 37 1.4 34.6
21:35 1024 30.24 853 25.19 16 60.7 37 1.3 34.4
21:40 1024 30.24 853 25.19 15.8 60.5 40 2.2 36
21:45 1024 30.24 853 25.19 15.5 59.9 39 1.6 34.9
21:50 1024 30.24 853 25.19 15.3 59.5 39 1.4 34.4
21:55 1024 30.24 853 25.19 15.4 59.7 38 1.2 34.1
22:00 1024 30.24 853 25.19 15.5 59.9 38 1.3 34.3
22:05 1024 30.24 853 25.19 15.5 59.8 38 1.3 34.3
22:10 1024 30.24 853 25.19 15.5 59.8 37 1.1 34
22:15 1024 30.24 853 25.19 15.4 59.6 38 1.4 34.5
22:20 1024 30.24 853 25.19 15.2 59.3 38 1.1 34.1
22:25 1024 30.24 853 25.19 15.1 59.1 39 1.2 34.1
22:30 1024 30.24 853 25.19 15.1 59.1 42 2.3 36.1
22:35 1024 30.24 853 25.19 15.2 59.3 38 1.1 33.9
22:40 1024 30.24 853 25.19 15.4 59.7 37 0.9 33.7
22:45 1024 30.24 853 25.19 15.7 60.2 36 0.8 33.5
22:50 1024 30.24 853 25.19 15.8 60.4 36 0.9 33.6
22:55 1024 30.24 853 25.19 15.9 60.7 36 0.8 33.5
23:00 1024 30.24 853 25.19 15.7 60.3 37 1.3 34.3
23:05 1024 30.24 853 25.19 15.5 59.9 42 2.7 36.9
23:10 1024 30.24 853 25.19 15 59 41 2 35.5
23:15 1024 30.24 853 25.19 14.8 58.7 40 1.3 34.3
23:20 1024 30.24 853 25.19 15.2 59.4 36 0.4 32.7
23:25 1024 30.24 853 25.19 15.6 60.1 38 1.3 34.4
23:30 1024 30.24 853 25.19 15 59 39 1.4 34.6
23:35 1024 30.24 853 25.19 15 59 40 1.5 34.8
23:40 1023 30.21 853 25.19 14.9 58.9 41 1.9 35.5
23:45 1023 30.21 853 25.19 14.6 58.3 42 1.9 35.5
23:50 1023 30.21 853 25.19 14.1 57.4 46 2.7 36.8
23:55 1023 30.21 853 25.19 13.7 56.6 44 1.8 35.2
24:00 1023 30.21 853 25.19 14.1 57.3 42 1.3 34.3